Aalborg, Denmark

2:00 AM CEST on August 28, 2014 (GMT +0200)
Aalborg | Change Station
CLOSE
Current Station
Airport
Location: Aalborg,
Elevation: 10 ft
Nearby Weather Stations

Elev 10 ft 57.10 °N, 9.85 °E | Updated 10 minutes ago

Mostly Cloudy
Mostly Cloudy
57 °F
Feels Like 57 °F
N
9
Wind Variable Wind from WSW

Today
High -- | Low -- °F
--% Chance of Precip.
Yesterday
High -- | Low -- °F
Precip. -- in
6:13 AM 8:28 PM
Waxing Crescent, 5% visible
Pressure 29.98 in
Visibility 6.2 miles
Clouds Mostly Cloudy 1400 ft
Dew Point 55 °F
Humidity 94%
Rainfall 0.00 in
Snow Depth Not available.
UV 0 out of 12
Pollen Not available.
Air Quality Not available.
Flu Activity Not available.
METAR EKYT 272350Z 25008KT 9999 BKN014 14/13 Q1015

More Conditions Fewer Conditions

Pressure 29.98 in
Visibility 6.2 miles
Clouds Mostly Cloudy 1400 ft
Dew Point 55 °F
Humidity 94%
Rainfall 0.00 in
Snow Depth Not available.
UV 0 out of 12
Pollen Not available.
Air Quality Not available.
Flu Activity Not available.
METAR EKYT 272350Z 25008KT 9999 BKN014 14/13 Q1015

More Conditions Fewer Conditions

10-Day Weather Forecast

Almanac

Astronomy

Aug. 28, 2014 Rise Set
Actual Time 6:13 AM CEST 8:28 PM CEST
Civil Twilight 5:32 AM CEST 9:09 PM CEST
Nautical Twilight 4:38 AM CEST 10:03 PM CEST
Astronomical Twilight 3:31 AM CEST 11:08 PM CEST
Moon 9:30 AM CEST 8:59 PM CEST
Length of Visible Light 15h 37m
Length of Day
14h 14m
Tomorrow will be 4m 44s shorter.
Waxing Crescent, 5% of the Moon is Illuminated
Aug 27
Waxing Crescent
Sep 2
First Quarter
Sep 8
Full
Sep 15
Last Quarter
Sep 24
New

Yesterday's Extremes

Country Highs Country Lows

Community

WunderPhotos

Upload Photos

1,747,826 photos uploaded!

Nearby

Snow Depth

Not available.

Earthquake Activity

City Distance Mag. Time & Date
No recent earthquake activity has been reported nearby.
Minimum magnitude displayed is 2.5.

Coastal Water Temperatures

Place Temperature
No Stations Reporting

Nearby Weather Stations